Time;durP1;ratioP1;P1;durP2;ratioP2;P2;SDS_P1;SDS_P2;PMS_P1;PMS_P2;Temp;Humidity;BMP_temperature;BMP_pressure;BME280_temperature;BME280_humidity;BME280_pressure;Samples;Min_cycle;Max_cycle;Signal;HPM_P1;HPM_P2
2022/06/22 00:01:14;;;;;;;1.95;1.25;;;19.20;65.60;;;;;;5086258;28;20017;-66
2022/06/22 00:03:41;;;;;;;2.33;1.40;;;19.20;65.70;;;;;;5067713;28;20030;-66
2022/06/22 00:06:26;;;;;;;1.40;1.00;;;19.10;65.90;;;;;;5087667;28;20107;-65
2022/06/22 00:08:52;;;;;;;1.48;1.30;;;19.10;66.00;;;;;;5077397;28;20033;-65
2022/06/22 00:11:18;;;;;;;1.30;1.20;;;19.10;66.10;;;;;;5075173;28;20017;-65
2022/06/22 00:13:58;;;;;;;2.60;1.63;;;19.10;66.30;;;;;;5077621;28;20047;-66
2022/06/22 00:16:36;;;;;;;1.67;1.30;;;19.00;66.30;;;;;;5085787;28;20360;-65
2022/06/22 00:19:17;;;;;;;1.90;1.50;;;19.00;66.30;;;;;;5090359;28;20105;-66
2022/06/22 00:21:43;;;;;;;1.27;1.10;;;19.00;66.30;;;;;;5081489;28;20026;-66
2022/06/22 00:24:35;;;;;;;1.67;1.25;;;18.90;66.30;;;;;;5075447;28;20115;-67
2022/06/22 00:27:16;;;;;;;1.98;1.38;;;18.90;66.40;;;;;;5090301;28;20556;-64
2022/06/22 00:29:44;;;;;;;2.40;1.25;;;18.80;66.50;;;;;;5086680;28;20460;-66
2022/06/22 00:32:25;;;;;;;1.50;1.08;;;18.80;66.70;;;;;;5083778;28;20107;-66
2022/06/22 00:34:51;;;;;;;1.98;1.27;;;18.70;66.80;;;;;;5085033;28;20486;-66
2022/06/22 00:37:30;;;;;;;1.88;1.25;;;18.70;66.80;;;;;;5092847;28;20028;-65
2022/06/22 00:40:00;;;;;;;2.28;1.38;;;18.70;66.80;;;;;;5093302;28;20059;-64
2022/06/22 00:42:40;;;;;;;1.10;1.02;;;18.70;67.00;;;;;;5084266;28;20028;-65
2022/06/22 00:45:12;;;;;;;3.55;1.33;;;18.60;66.90;;;;;;5078009;28;20023;-65
2022/06/22 00:47:58;;;;;;;1.20;1.10;;;18.60;67.10;;;;;;5086388;28;20493;-67
2022/06/22 00:50:36;;;;;;;1.52;1.13;;;18.50;67.20;;;;;;5094643;28;20029;-67
2022/06/22 00:53:23;;;;;;;3.05;1.35;;;18.50;67.40;;;;;;5094323;28;20058;-67
2022/06/22 00:55:57;;;;;;;1.20;1.10;;;18.50;67.50;;;;;;5087328;28;20047;-65
2022/06/22 00:58:26;;;;;;;1.42;1.23;;;18.50;67.50;;;;;;5087322;28;20028;-66
2022/06/22 01:01:25;;;;;;;3.53;1.48;;;18.40;67.60;;;;;;5085845;28;20029;-66
2022/06/22 01:04:04;;;;;;;6.53;2.03;;;18.40;67.60;;;;;;5082255;28;20124;-66
2022/06/22 01:06:38;;;;;;;3.00;1.27;;;18.40;67.60;;;;;;5081277;28;20102;-66
2022/06/22 01:09:32;;;;;;;2.70;1.40;;;18.40;67.60;;;;;;5091067;28;20036;-66
2022/06/22 01:12:18;;;;;;;2.35;1.58;;;18.40;67.70;;;;;;5083699;28;20055;-66
2022/06/22 01:15:12;;;;;;;2.03;1.35;;;18.30;67.70;;;;;;5084725;28;20046;-65
2022/06/22 01:17:59;;;;;;;2.95;1.60;;;18.30;67.80;;;;;;5094897;28;20115;-67
2022/06/22 01:20:40;;;;;;;3.50;1.65;;;18.30;67.90;;;;;;5088308;28;20432;-67
2022/06/22 01:23:45;;;;;;;1.55;1.00;;;18.30;67.90;;;;;;5082662;28;20032;-66
2022/06/22 01:26:22;;;;;;;3.70;1.73;;;18.30;67.90;;;;;;5083725;28;20148;-67
2022/06/22 01:28:58;;;;;;;2.58;1.60;;;18.30;67.90;;;;;;5093129;28;20494;-65
2022/06/22 01:31:23;;;;;;;1.52;0.98;;;18.20;67.90;;;;;;5088044;28;20036;-65
2022/06/22 01:33:51;;;;;;;3.25;1.58;;;18.20;68.00;;;;;;5098160;28;20478;-65
2022/06/22 01:36:24;;;;;;;2.15;1.70;;;18.20;68.40;;;;;;5088373;28;20399;-66
2022/06/22 01:38:51;;;;;;;4.03;1.85;;;18.20;68.50;;;;;;5079221;28;20027;-65
2022/06/22 01:41:59;;;;;;;2.28;2.08;;;18.10;68.60;;;;;;5084514;28;20056;-67
2022/06/22 01:44:38;;;;;;;3.47;2.25;;;18.20;68.60;;;;;;5056004;28;20055;-66
2022/06/22 01:47:31;;;;;;;2.47;2.08;;;18.10;68.60;;;;;;5072388;28;20021;-67
2022/06/22 01:50:13;;;;;;;1.65;1.55;;;18.00;68.60;;;;;;5084983;28;20913;-66
2022/06/22 01:52:51;;;;;;;1.87;1.63;;;18.00;68.80;;;;;;5093479;28;20472;-66
2022/06/22 01:55:55;;;;;;;1.83;1.58;;;18.00;68.70;;;;;;5078297;28;20610;-66
2022/06/22 01:58:21;;;;;;;4.10;1.85;;;18.00;68.70;;;;;;5072515;27;20066;-67
2022/06/22 02:00:59;;;;;;;1.75;1.42;;;18.00;68.80;;;;;;5095786;28;20032;-67
2022/06/22 02:03:42;;;;;;;4.82;1.92;;;18.00;68.80;;;;;;5081733;28;20055;-66
2022/06/22 02:09:16;;;;;;;1.98;1.27;;;17.90;68.70;;;;;;5079266;28;20110;-67
2022/06/22 02:11:47;;;;;;;2.58;1.35;;;17.90;68.80;;;;;;5083883;28;20034;-66
2022/06/22 02:14:18;;;;;;;1.75;1.60;;;17.90;68.90;;;;;;5095370;28;20036;-65
2022/06/22 02:16:55;;;;;;;3.08;1.73;;;17.80;69.00;;;;;;5095675;28;20024;-66
2022/06/22 02:19:22;;;;;;;1.73;1.63;;;17.80;69.00;;;;;;5091224;28;20487;-66
2022/06/22 02:21:50;;;;;;;2.08;1.70;;;17.80;69.10;;;;;;5081370;28;20103;-66
2022/06/22 02:24:39;;;;;;;10.50;1.80;;;17.80;69.20;;;;;;5085625;28;20081;-66
2022/06/22 02:27:13;;;;;;;1.75;1.65;;;17.80;69.30;;;;;;5086219;28;20107;-66
2022/06/22 02:29:48;;;;;;;1.50;1.40;;;17.70;69.40;;;;;;5078593;28;20052;-65
2022/06/22 02:32:21;;;;;;;2.33;1.92;;;17.70;69.40;;;;;;5073063;28;20035;-65
2022/06/22 02:34:49;;;;;;;3.05;1.58;;;17.70;69.40;;;;;;5091627;28;20717;-66
2022/06/22 02:37:18;;;;;;;1.58;1.30;;;17.60;69.40;;;;;;5085876;27;20092;-66
2022/06/22 02:39:48;;;;;;;1.98;1.65;;;17.60;69.50;;;;;;5095656;28;20083;-66
2022/06/22 02:45:00;;;;;;;1.30;1.20;;;17.50;69.50;;;;;;5086545;28;20098;-65
2022/06/22 02:47:41;;;;;;;1.88;1.42;;;17.50;69.60;;;;;;5074773;28;20498;-67
2022/06/22 02:50:44;;;;;;;2.17;1.65;;;17.50;69.80;;;;;;5078721;28;20089;-67
2022/06/22 02:53:23;;;;;;;1.90;1.60;;;17.50;70.00;;;;;;5069519;28;20098;-66
2022/06/22 02:55:50;;;;;;;2.03;1.85;;;17.40;70.10;;;;;;5076260;28;20024;-66
2022/06/22 02:58:37;;;;;;;1.38;1.20;;;17.30;70.10;;;;;;5078665;28;20024;-65
2022/06/22 03:01:25;;;;;;;2.42;1.92;;;17.40;70.10;;;;;;5069009;28;20024;-66
2022/06/22 03:03:55;;;;;;;1.98;1.40;;;17.50;70.00;;;;;;5074207;28;20020;-66
2022/06/22 03:06:35;;;;;;;1.50;1.40;;;17.40;69.90;;;;;;5069041;28;20493;-66
2022/06/22 03:09:03;;;;;;;1.92;1.50;;;17.40;69.90;;;;;;5076677;28;20017;-67
2022/06/22 03:11:32;;;;;;;2.90;2.35;;;17.40;70.00;;;;;;5073005;28;20462;-66
2022/06/22 03:14:08;;;;;;;2.53;1.80;;;17.40;70.00;;;;;;5066789;28;20051;-67
2022/06/22 03:16:37;;;;;;;2.00;1.75;;;17.40;69.90;;;;;;5070150;28;20094;-67
2022/06/22 03:19:11;;;;;;;9.27;2.15;;;17.40;70.10;;;;;;5069093;28;20020;-67
2022/06/22 03:21:39;;;;;;;3.50;1.73;;;17.40;70.10;;;;;;5081458;28;20028;-67
2022/06/22 03:24:37;;;;;;;4.47;1.60;;;17.30;70.10;;;;;;5072101;28;20046;-67
2022/06/22 03:27:11;;;;;;;1.90;1.45;;;17.40;70.20;;;;;;5083006;28;20068;-66
2022/06/22 03:29:56;;;;;;;2.80;1.92;;;17.30;70.10;;;;;;5070144;28;20024;-66
2022/06/22 03:32:41;;;;;;;2.03;1.70;;;17.30;70.20;;;;;;5072779;28;20081;-66
2022/06/22 03:35:28;;;;;;;3.22;1.85;;;17.30;70.20;;;;;;5079789;28;20511;-67
2022/06/22 03:37:58;;;;;;;4.90;1.52;;;17.30;70.30;;;;;;5082449;28;20454;-67
2022/06/22 03:40:55;;;;;;;8.30;2.15;;;17.20;70.30;;;;;;5094699;28;20040;-67
2022/06/22 03:43:24;;;;;;;4.80;1.80;;;17.20;70.30;;;;;;5072629;28;20492;-67
2022/06/22 03:45:56;;;;;;;3.15;2.15;;;17.20;70.30;;;;;;5076139;28;20057;-66
2022/06/22 03:48:29;;;;;;;1.60;1.42;;;17.30;70.40;;;;;;5081146;28;20032;-66
2022/06/22 03:51:23;;;;;;;1.73;1.55;;;17.30;70.40;;;;;;5089825;28;20032;-65
2022/06/22 03:53:59;;;;;;;2.45;1.88;;;17.30;70.30;;;;;;5079912;28;20028;-67
2022/06/22 03:56:32;;;;;;;2.20;1.50;;;17.30;70.30;;;;;;5074051;28;20028;-66
2022/06/22 03:59:00;;;;;;;7.63;1.60;;;17.30;70.20;;;;;;5085516;28;20033;-65
2022/06/22 04:01:25;;;;;;;2.35;2.03;;;17.30;70.20;;;;;;5091180;28;20028;-66
2022/06/22 04:03:54;;;;;;;2.15;1.95;;;17.30;70.10;;;;;;5074343;28;20162;-67
2022/06/22 04:06:44;;;;;;;1.77;1.63;;;17.30;70.00;;;;;;5075218;28;20041;-66
2022/06/22 04:09:19;;;;;;;1.80;1.33;;;17.30;70.00;;;;;;5081581;28;20104;-67
2022/06/22 04:12:09;;;;;;;1.83;1.60;;;17.20;70.10;;;;;;5099023;28;20139;-67
2022/06/22 04:14:51;;;;;;;2.30;1.73;;;17.30;70.10;;;;;;5077475;28;20028;-65
2022/06/22 04:17:31;;;;;;;3.78;2.00;;;17.30;70.10;;;;;;5089876;28;20059;-65
2022/06/22 04:20:18;;;;;;;2.35;2.13;;;17.30;70.10;;;;;;5087528;28;20035;-66
2022/06/22 04:22:48;;;;;;;4.20;1.67;;;17.30;70.10;;;;;;5085919;28;20357;-66
2022/06/22 04:25:28;;;;;;;1.63;1.40;;;17.30;70.10;;;;;;5074206;28;20553;-65
2022/06/22 04:27:57;;;;;;;2.30;2.10;;;17.40;70.20;;;;;;5071127;28;20025;-67
2022/06/22 04:30:29;;;;;;;2.15;1.80;;;17.40;70.20;;;;;;5070161;28;20073;-66
2022/06/22 04:33:27;;;;;;;1.67;1.52;;;17.40;70.20;;;;;;5086210;28;20487;-67
2022/06/22 04:36:08;;;;;;;10.23;2.42;;;17.50;70.10;;;;;;5077516;28;20093;-66
2022/06/22 04:38:57;;;;;;;4.20;1.98;;;17.50;70.20;;;;;;5091494;28;20103;-67
2022/06/22 04:41:36;;;;;;;3.08;1.65;;;17.50;70.10;;;;;;5083486;28;20027;-66
2022/06/22 04:44:16;;;;;;;6.32;1.52;;;17.60;70.10;;;;;;5081743;28;20044;-66
2022/06/22 04:46:50;;;;;;;2.33;1.80;;;17.70;70.00;;;;;;5087453;28;20031;-66
2022/06/22 04:49:29;;;;;;;2.20;1.90;;;17.70;69.80;;;;;;5087250;28;20391;-65
2022/06/22 04:52:25;;;;;;;1.75;1.45;;;17.80;69.90;;;;;;5092668;28;20055;-66
2022/06/22 04:54:55;;;;;;;2.03;1.70;;;17.80;69.70;;;;;;5102593;27;20059;-66
2022/06/22 04:57:26;;;;;;;1.58;1.48;;;17.90;69.60;;;;;;5086872;28;20032;-65
2022/06/22 04:59:53;;;;;;;3.05;1.65;;;17.90;69.50;;;;;;5097206;28;20036;-66
2022/06/22 05:02:21;;;;;;;2.42;2.08;;;18.00;69.40;;;;;;5077253;28;20702;-66
2022/06/22 05:04:53;;;;;;;1.90;1.60;;;18.00;69.30;;;;;;5073758;28;20075;-66
2022/06/22 05:07:40;;;;;;;2.50;1.77;;;18.10;69.30;;;;;;5093461;28;20027;-65
2022/06/22 05:10:19;;;;;;;3.17;1.75;;;18.10;69.10;;;;;;5072051;28;20074;-66
2022/06/22 05:12:53;;;;;;;1.92;1.73;;;18.20;69.00;;;;;;5074351;28;20079;-67
2022/06/22 05:15:27;;;;;;;2.97;1.90;;;18.30;68.90;;;;;;5089600;28;20032;-67
2022/06/22 05:17:54;;;;;;;2.75;1.42;;;18.30;68.70;;;;;;5079888;28;20017;-67
2022/06/22 05:20:31;;;;;;;1.83;1.50;;;18.40;68.60;;;;;;5077052;28;20387;-66
2022/06/22 05:23:00;;;;;;;1.48;1.38;;;18.40;68.40;;;;;;5085759;28;20080;-67
2022/06/22 05:25:28;;;;;;;2.72;1.60;;;18.50;68.30;;;;;;5083950;28;20326;-66
2022/06/22 05:27:57;;;;;;;1.55;1.20;;;18.50;68.10;;;;;;5087058;28;20029;-66
2022/06/22 05:30:23;;;;;;;1.40;1.30;;;18.60;68.20;;;;;;5072103;28;20042;-66
2022/06/22 05:32:59;;;;;;;1.33;1.25;;;18.70;68.50;;;;;;5082624;28;20063;-67
2022/06/22 05:35:36;;;;;;;1.38;1.20;;;18.70;67.90;;;;;;5082283;28;20493;-67
2022/06/22 05:38:06;;;;;;;2.67;1.35;;;18.70;67.80;;;;;;5090165;28;20030;-68
2022/06/22 05:40:34;;;;;;;5.15;2.05;;;18.70;67.80;;;;;;5070437;28;20028;-65
2022/06/22 05:42:59;;;;;;;1.38;1.27;;;18.80;67.80;;;;;;5081916;28;20036;-66
2022/06/22 05:45:33;;;;;;;2.10;1.25;;;18.80;67.60;;;;;;5090464;28;20093;-66
2022/06/22 05:47:59;;;;;;;3.33;1.15;;;18.90;67.50;;;;;;5079577;28;20037;-67
2022/06/22 05:50:49;;;;;;;1.42;1.30;;;19.00;67.50;;;;;;5068975;28;20481;-68
2022/06/22 05:53:23;;;;;;;2.10;1.60;;;19.00;67.40;;;;;;5079115;28;20043;-67
2022/06/22 05:56:05;;;;;;;2.45;1.30;;;19.10;67.20;;;;;;5081246;28;20027;-67
2022/06/22 05:58:57;;;;;;;1.13;1.08;;;19.10;67.00;;;;;;5070695;28;20027;-68
2022/06/22 06:01:29;;;;;;;;;;;19.30;66.90;;;;;;5087359;28;20081;-67
2022/06/22 06:04:27;;;;;;;0.73;0.73;;;19.40;66.70;;;;;;5080247;28;19959;-67
2022/06/22 06:06:59;;;;;;;1.50;0.98;;;19.40;66.40;;;;;;5062178;28;20043;-67
2022/06/22 06:09:27;;;;;;;1.70;1.08;;;19.50;66.20;;;;;;5072110;28;20020;-67
2022/06/22 06:12:07;;;;;;;4.80;1.38;;;19.50;66.00;;;;;;5082971;28;20036;-67
2022/06/22 06:14:38;;;;;;;0.75;0.75;;;19.60;65.80;;;;;;5070142;28;20056;-68
2022/06/22 06:17:11;;;;;;;1.70;0.88;;;19.70;65.60;;;;;;5069496;28;20078;-66
2022/06/22 06:19:40;;;;;;;3.30;1.13;;;19.70;65.30;;;;;;5078508;28;20019;-67
2022/06/22 06:22:07;;;;;;;0.60;0.60;;;19.80;65.20;;;;;;5081653;28;20020;-67
2022/06/22 06:27:34;;;;;;;9.68;1.42;;;19.90;65.00;;;;;;5073151;28;20032;-67
2022/06/22 06:27:35;;;;;;;1.33;1.00;;;19.90;64.80;;;;;;5075983;28;20562;-68
2022/06/22 06:30:30;;;;;;;1.10;0.95;;;20.00;64.40;;;;;;5088407;28;20024;-67
2022/06/22 06:33:26;;;;;;;0.70;0.70;;;20.00;64.20;;;;;;5078644;28;20056;-68
2022/06/22 06:35:57;;;;;;;0.60;0.60;;;20.10;64.00;;;;;;5076433;28;20046;-67
2022/06/22 06:38:38;;;;;;;0.55;0.55;;;20.20;63.70;;;;;;5073521;28;20077;-68
2022/06/22 06:41:47;;;;;;;0.80;0.80;;;20.30;63.60;;;;;;5079284;28;20051;-66
2022/06/22 06:44:18;;;;;;;0.65;0.65;;;20.40;63.30;;;;;;5068935;28;20045;-67
2022/06/22 06:46:46;;;;;;;0.63;0.63;;;20.50;63.00;;;;;;5085525;28;20028;-68
2022/06/22 06:49:32;;;;;;;0.70;0.70;;;20.50;62.90;;;;;;5093406;28;20025;-66
2022/06/22 06:52:02;;;;;;;0.93;0.80;;;20.60;62.60;;;;;;5075723;28;20064;-66
2022/06/22 06:54:37;;;;;;;1.13;1.05;;;20.70;63.10;;;;;;5087212;28;20055;-66
2022/06/22 06:57:13;;;;;;;1.00;0.82;;;20.80;62.30;;;;;;5083913;28;20068;-66
2022/06/22 06:59:42;;;;;;;0.98;0.50;;;20.90;62.20;;;;;;5085779;28;20025;-65
2022/06/22 07:02:25;;;;;;;1.10;0.82;;;21.00;62.00;;;;;;5073519;28;20027;-66
2022/06/22 07:04:51;;;;;;;0.82;0.82;;;21.00;61.80;;;;;;5073926;28;20020;-67
2022/06/22 07:07:51;;;;;;;1.08;0.80;;;21.10;61.60;;;;;;5077399;28;20033;-65
2022/06/22 07:10:34;;;;;;;1.88;1.20;;;21.20;61.40;;;;;;5085281;28;20043;-66
2022/06/22 07:13:04;;;;;;;0.55;0.55;;;21.30;61.30;;;;;;5080607;28;20630;-66
2022/06/22 07:15:35;;;;;;;0.75;0.75;;;21.30;61.00;;;;;;5087739;28;20021;-66
2022/06/22 07:18:14;;;;;;;1.98;0.85;;;21.40;60.80;;;;;;5086306;28;20032;-65
2022/06/22 07:20:45;;;;;;;0.40;0.40;;;21.50;60.10;;;;;;5082028;28;20040;-68
2022/06/22 07:23:47;;;;;;;1.05;0.90;;;21.60;60.10;;;;;;5078283;28;20036;-67
2022/06/22 07:26:21;;;;;;;6.43;1.30;;;21.70;60.00;;;;;;5063633;28;20346;-68
2022/06/22 07:29:05;;;;;;;1.10;1.00;;;21.80;59.70;;;;;;5088854;28;20016;-67
2022/06/22 07:31:37;;;;;;;0.65;0.65;;;21.90;59.30;;;;;;5084065;28;20032;-66
2022/06/22 07:34:17;;;;;;;0.70;0.70;;;21.90;59.10;;;;;;5078054;28;20032;-67
2022/06/22 07:36:52;;;;;;;0.60;0.60;;;22.00;58.70;;;;;;5076882;28;20039;-67
2022/06/22 07:39:48;;;;;;;0.50;0.50;;;22.20;58.60;;;;;;5081468;28;20052;-66
2022/06/22 07:42:14;;;;;;;1.30;1.00;;;22.30;58.40;;;;;;5082995;28;20485;-66
2022/06/22 07:44:41;;;;;;;0.50;0.50;;;22.30;58.00;;;;;;5092798;28;20053;-65
2022/06/22 07:47:33;;;;;;;0.52;0.50;;;22.40;58.00;;;;;;5091057;28;20072;-66
2022/06/22 07:50:16;;;;;;;1.03;0.90;;;22.50;58.00;;;;;;5087530;28;20028;-66
2022/06/22 07:52:59;;;;;;;0.65;0.65;;;22.60;57.80;;;;;;5076298;28;20475;-67
2022/06/22 07:55:31;;;;;;;0.60;0.60;;;22.70;57.60;;;;;;5089771;28;20032;-66
2022/06/22 07:58:15;;;;;;;0.80;0.75;;;22.80;57.40;;;;;;5087874;28;20020;-67
2022/06/22 08:00:43;;;;;;;1.20;0.65;;;22.90;57.10;;;;;;5078442;28;20071;-66
2022/06/22 08:03:30;;;;;;;0.57;0.57;;;23.00;56.60;;;;;;5092065;28;20102;-66
2022/06/22 08:06:03;;;;;;;1.33;0.77;;;23.10;56.40;;;;;;5079362;28;20036;-66
2022/06/22 08:09:02;;;;;;;1.95;0.60;;;23.20;56.10;;;;;;5088072;28;20032;-67
2022/06/22 08:11:34;;;;;;;0.60;0.60;;;23.30;56.10;;;;;;5086578;28;20093;-67
2022/06/22 08:14:17;;;;;;;0.47;0.45;;;23.40;55.70;;;;;;5070877;28;20052;-64
2022/06/22 08:16:55;;;;;;;0.60;0.50;;;23.50;55.40;;;;;;5090032;28;20035;-65
2022/06/22 08:19:21;;;;;;;0.63;0.63;;;23.60;55.00;;;;;;5091721;28;20410;-65
2022/06/22 08:21:52;;;;;;;0.30;0.30;;;23.60;54.60;;;;;;5088663;28;20036;-65
2022/06/22 08:24:19;;;;;;;0.47;0.47;;;23.70;54.30;;;;;;5086154;28;20032;-66
2022/06/22 08:26:47;;;;;;;0.77;0.77;;;23.80;53.80;;;;;;5100472;28;20070;-66
2022/06/22 08:29:18;;;;;;;0.65;0.60;;;23.80;53.10;;;;;;5077490;28;20047;-66
2022/06/22 08:31:52;;;;;;;0.50;0.50;;;23.90;52.90;;;;;;5088818;28;20039;-67
2022/06/22 08:34:26;;;;;;;0.52;0.52;;;24.00;52.80;;;;;;5072110;28;20035;-66
2022/06/22 08:37:05;;;;;;;1.20;0.80;;;24.10;52.30;;;;;;5095686;28;20020;-66
2022/06/22 08:40:21;;;;;;;0.77;0.77;;;24.20;52.10;;;;;;5078322;28;20012;-65
2022/06/22 08:42:49;;;;;;;0.73;0.60;;;24.30;52.10;;;;;;5071271;28;20119;-67
2022/06/22 08:45:30;;;;;;;1.55;0.88;;;24.40;51.90;;;;;;5072104;28;20048;-67
2022/06/22 08:48:11;;;;;;;0.68;0.68;;;24.50;51.70;;;;;;5085399;28;20107;-66
2022/06/22 08:50:54;;;;;;;2.10;0.50;;;24.60;51.30;;;;;;5087884;28;20432;-67
2022/06/22 08:53:26;;;;;;;0.57;0.57;;;24.60;51.10;;;;;;5091295;28;20051;-67
2022/06/22 08:55:54;;;;;;;0.45;0.45;;;24.70;50.70;;;;;;5084338;28;20547;-67
2022/06/22 08:58:50;;;;;;;0.52;0.52;;;24.70;50.20;;;;;;5082811;28;20040;-67
2022/06/22 09:01:46;;;;;;;0.70;0.70;;;24.70;50.00;;;;;;5089006;28;20028;-63
2022/06/22 09:04:28;;;;;;;0.50;0.50;;;24.80;49.70;;;;;;5082411;28;20024;-64
2022/06/22 09:07:04;;;;;;;0.50;0.50;;;24.80;49.10;;;;;;5088407;28;20043;-64
2022/06/22 09:09:42;;;;;;;0.35;0.35;;;24.90;49.00;;;;;;5095550;28;20031;-68
2022/06/22 09:12:26;;;;;;;0.60;0.50;;;25.00;48.30;;;;;;5102377;28;20020;-67
2022/06/22 09:14:52;;;;;;;1.55;0.47;;;25.10;47.70;;;;;;5070585;28;20045;-65
2022/06/22 09:17:41;;;;;;;0.50;0.50;;;25.10;47.60;;;;;;5071219;28;20094;-64
2022/06/22 09:20:45;;;;;;;0.80;0.50;;;25.20;47.60;;;;;;5080320;28;20027;-64
2022/06/22 09:23:40;;;;;;;2.88;0.60;;;25.30;47.40;;;;;;5042021;28;20036;-67
2022/06/22 09:26:16;;;;;;;0.40;0.40;;;25.30;47.10;;;;;;5070600;28;20075;-64
2022/06/22 09:28:45;;;;;;;0.35;0.35;;;25.30;47.10;;;;;;5078331;28;20024;-65
2022/06/22 09:31:29;;;;;;;0.73;0.55;;;25.40;47.10;;;;;;5070877;28;20502;-64
2022/06/22 09:34:34;;;;;;;0.60;0.60;;;25.50;46.80;;;;;;5070368;28;20032;-64
2022/06/22 09:37:18;;;;;;;0.65;0.65;;;25.60;46.20;;;;;;5074198;28;20036;-64
2022/06/22 09:40:06;;;;;;;0.40;0.40;;;25.60;46.20;;;;;;5086882;28;20032;-64
2022/06/22 09:43:00;;;;;;;0.63;0.63;;;25.70;45.70;;;;;;5084868;28;20025;-65
2022/06/22 09:45:54;;;;;;;0.52;0.52;;;25.90;45.10;;;;;;5077714;28;20471;-64
2022/06/22 09:48:36;;;;;;;0.40;0.40;;;26.10;44.80;;;;;;5088870;28;20047;-64
2022/06/22 09:51:26;;;;;;;0.32;0.30;;;26.20;44.30;;;;;;5069159;28;20051;-64
2022/06/22 09:57:34;;;;;;;0.40;0.40;;;26.30;43.40;;;;;;5069808;28;20124;-64
2022/06/22 10:00:20;;;;;;;0.40;0.40;;;26.30;43.30;;;;;;5069424;28;20101;-64
2022/06/22 10:03:04;;;;;;;0.40;0.40;;;26.40;43.30;;;;;;5069822;28;20016;-64
2022/06/22 10:05:54;;;;;;;1.10;0.85;;;26.50;43.10;;;;;;5069105;28;20035;-63
2022/06/22 10:08:40;;;;;;;0.60;0.45;;;26.60;42.80;;;;;;5084346;28;20073;-64
2022/06/22 10:11:13;;;;;;;0.40;0.40;;;26.70;42.80;;;;;;5072984;28;20027;-65
2022/06/22 10:13:57;;;;;;;0.52;0.52;;;26.80;42.30;;;;;;5085796;28;20051;-65
2022/06/22 10:16:33;;;;;;;0.40;0.40;;;26.80;42.40;;;;;;5078263;28;20430;-65
2022/06/22 10:19:08;;;;;;;0.40;0.40;;;27.00;42.60;;;;;;5093835;28;20043;-64
2022/06/22 10:21:42;;;;;;;0.50;0.50;;;27.20;42.30;;;;;;5077555;28;20044;-66
2022/06/22 10:24:17;;;;;;;0.55;0.55;;;27.30;42.20;;;;;;5076479;28;20013;-64
2022/06/22 10:27:07;;;;;;;1.02;0.52;;;27.40;42.10;;;;;;5076493;28;20032;-64
2022/06/22 10:29:41;;;;;;;0.50;0.50;;;27.50;41.80;;;;;;5084942;28;20496;-64
2022/06/22 10:32:26;;;;;;;0.45;0.45;;;27.60;41.40;;;;;;5081673;28;20032;-68
2022/06/22 10:35:20;;;;;;;0.50;0.50;;;27.70;41.40;;;;;;5077114;28;20506;-67
2022/06/22 10:38:13;;;;;;;0.70;0.65;;;27.70;41.10;;;;;;5088526;28;20040;-66
2022/06/22 10:47:12;;;;;;;1.13;0.60;;;27.90;41.00;;;;;;5082284;28;20040;-67
2022/06/22 10:49:51;;;;;;;0.55;0.55;;;28.00;40.80;;;;;;5082891;28;20523;-65
2022/06/22 10:52:36;;;;;;;0.50;0.50;;;28.10;40.60;;;;;;5079408;28;20028;-65
2022/06/22 10:55:23;;;;;;;0.90;0.90;;;28.20;40.30;;;;;;5081287;28;20503;-65
2022/06/22 10:58:00;;;;;;;0.45;0.45;;;28.30;39.40;;;;;;5072663;28;20090;-66
2022/06/22 11:00:54;;;;;;;0.47;0.47;;;28.40;39.50;;;;;;5075697;28;20292;-65
2022/06/22 11:03:43;;;;;;;0.40;0.40;;;28.60;39.70;;;;;;5073467;28;20464;-65
2022/06/22 11:06:19;;;;;;;0.60;0.60;;;28.70;38.90;;;;;;5088226;28;20020;-65
2022/06/22 11:09:18;;;;;;;0.52;0.52;;;28.80;38.40;;;;;;5073237;28;20150;-66
2022/06/22 11:12:19;;;;;;;1.30;0.60;;;29.00;38.50;;;;;;5076751;28;20036;-67
2022/06/22 11:15:09;;;;;;;0.73;0.73;;;29.10;38.40;;;;;;5079680;28;20036;-67
2022/06/22 11:17:59;;;;;;;2.47;0.85;;;29.10;38.10;;;;;;5075342;28;20020;-67
2022/06/22 11:20:37;;;;;;;0.52;0.52;;;29.20;38.50;;;;;;5071543;28;20024;-67
2022/06/22 11:23:12;;;;;;;0.38;0.38;;;29.30;38.20;;;;;;5075817;28;20387;-67
2022/06/22 11:32:21;;;;;;;0.40;0.40;;;29.70;37.40;;;;;;5082415;28;20039;-66
2022/06/22 11:35:03;;;;;;;0.95;0.85;;;29.90;37.40;;;;;;5082962;28;20024;-67
2022/06/22 11:37:59;;;;;;;0.60;0.60;;;29.90;37.30;;;;;;5078181;28;20104;-67
2022/06/22 11:40:28;;;;;;;0.50;0.50;;;30.00;37.50;;;;;;5076475;28;20437;-67
2022/06/22 11:43:12;;;;;;;1.02;0.93;;;30.00;37.20;;;;;;5077211;28;20037;-66
2022/06/22 11:46:13;;;;;;;0.77;0.77;;;30.00;37.00;;;;;;5077206;28;20031;-67
2022/06/22 11:49:09;;;;;;;0.50;0.50;;;30.00;37.00;;;;;;5071187;28;20041;-67
2022/06/22 11:52:03;;;;;;;0.88;0.88;;;30.10;36.80;;;;;;5079611;28;20051;-66
2022/06/22 11:54:32;;;;;;;0.90;0.60;;;30.30;36.90;;;;;;5078306;28;20060;-67
2022/06/22 11:57:01;;;;;;;0.70;0.60;;;30.40;36.80;;;;;;5085292;28;20024;-67
2022/06/22 11:59:33;;;;;;;1.17;1.08;;;30.40;35.40;;;;;;5074852;28;20825;-67
2022/06/22 12:02:40;;;;;;;1.67;1.25;;;30.40;36.00;;;;;;5083668;28;20031;-67
2022/06/22 12:05:32;;;;;;;2.10;0.70;;;30.50;36.10;;;;;;5067024;28;20372;-65
2022/06/22 12:08:06;;;;;;;1.40;0.85;;;30.70;35.70;;;;;;5080155;28;20028;-66
2022/06/22 12:10:46;;;;;;;0.82;0.60;;;30.70;35.60;;;;;;5070182;28;20028;-66
2022/06/22 12:13:35;;;;;;;0.50;0.50;;;30.80;36.00;;;;;;5088118;28;20406;-66
2022/06/22 12:16:36;;;;;;;0.55;0.55;;;30.90;35.90;;;;;;5071188;28;20140;-67
2022/06/22 12:19:11;;;;;;;0.53;0.53;;;31.00;35.70;;;;;;5077446;28;20029;-68
2022/06/22 12:21:50;;;;;;;3.42;1.00;;;31.20;35.70;;;;;;5077621;28;20031;-65
2022/06/22 12:24:35;;;;;;;0.93;0.93;;;31.20;35.20;;;;;;5074705;28;20031;-66
2022/06/22 12:27:04;;;;;;;0.60;0.60;;;31.30;35.10;;;;;;5080791;28;20065;-66
2022/06/22 12:29:51;;;;;;;0.43;0.43;;;31.40;35.00;;;;;;5084226;28;20040;-66
2022/06/22 12:32:29;;;;;;;0.60;0.60;;;31.50;34.80;;;;;;5073863;28;20024;-66
2022/06/22 12:35:23;;;;;;;0.60;0.60;;;31.60;34.90;;;;;;5076186;28;20081;-65
2022/06/22 12:38:05;;;;;;;0.50;0.50;;;31.70;34.60;;;;;;5092424;28;20104;-64
2022/06/22 12:40:49;;;;;;;;;;;31.70;34.50;;;;;;5070957;28;20390;-66
2022/06/22 12:43:33;;;;;;;0.50;0.50;;;31.80;34.60;;;;;;5071011;28;20331;-66
2022/06/22 12:46:20;;;;;;;0.70;0.70;;;32.00;34.60;;;;;;5070571;28;20407;-66
2022/06/22 12:49:05;;;;;;;0.60;0.60;;;32.00;32.70;;;;;;5072540;28;20029;-65
2022/06/22 12:51:37;;;;;;;0.60;0.60;;;31.80;33.50;;;;;;5070251;28;20024;-67
2022/06/22 12:54:09;;;;;;;0.60;0.60;;;31.80;34.00;;;;;;5071456;28;20093;-66
2022/06/22 12:56:53;;;;;;;;;;;31.80;34.20;;;;;;5070236;28;20021;-65
2022/06/22 12:59:36;;;;;;;0.50;0.50;;;32.00;34.20;;;;;;5082043;28;19912;-65
2022/06/22 13:02:04;;;;;;;0.60;0.60;;;32.00;34.40;;;;;;5083226;28;20379;-66
2022/06/22 13:04:35;;;;;;;4.25;1.00;;;32.00;34.50;;;;;;5078976;28;20046;-66
2022/06/22 13:07:05;;;;;;;0.50;0.50;;;32.20;34.40;;;;;;5087466;28;20096;-66
2022/06/22 13:09:32;;;;;;;0.45;0.45;;;32.40;34.20;;;;;;5078673;28;20046;-65
2022/06/22 13:12:02;;;;;;;0.55;0.55;;;32.60;34.00;;;;;;5085030;28;20100;-65
2022/06/22 13:14:40;;;;;;;1.23;0.70;;;32.70;33.10;;;;;;5078282;28;20072;-67
2022/06/22 13:17:24;;;;;;;0.63;0.63;;;32.80;33.20;;;;;;5083150;28;20459;-66
2022/06/22 13:20:27;;;;;;;0.73;0.73;;;32.90;32.90;;;;;;5074459;28;20032;-67
2022/06/22 13:23:01;;;;;;;1.67;0.65;;;33.00;32.80;;;;;;5086784;28;20083;-67
2022/06/22 13:25:44;;;;;;;0.50;0.50;;;33.00;32.40;;;;;;5069097;28;20097;-67
2022/06/22 13:28:18;;;;;;;0.70;0.70;;;32.90;32.30;;;;;;5082159;28;20038;-67
2022/06/22 13:30:47;;;;;;;0.60;0.60;;;32.80;32.10;;;;;;5083288;28;20036;-67
2022/06/22 13:33:51;;;;;;;0.45;0.45;;;32.80;32.20;;;;;;5088004;28;20020;-66
2022/06/22 13:36:27;;;;;;;0.50;0.50;;;32.90;32.40;;;;;;5044775;28;20040;-65
2022/06/22 13:39:01;;;;;;;0.70;0.70;;;33.10;32.10;;;;;;5084217;28;20052;-66
2022/06/22 13:41:27;;;;;;;0.45;0.45;;;33.10;31.80;;;;;;5086000;28;20070;-65
2022/06/22 13:44:32;;;;;;;0.60;0.60;;;33.30;31.20;;;;;;5086205;28;20032;-65
2022/06/22 13:47:16;;;;;;;0.52;0.52;;;33.30;30.60;;;;;;5091907;28;20019;-65
2022/06/22 13:50:03;;;;;;;0.40;0.40;;;33.40;30.80;;;;;;5081086;28;20111;-65
2022/06/22 13:52:44;;;;;;;0.50;0.50;;;33.50;31.00;;;;;;5085572;28;20031;-65
2022/06/22 13:55:44;;;;;;;0.73;0.73;;;33.50;31.00;;;;;;5082926;28;20034;-65
2022/06/22 13:58:30;;;;;;;0.60;0.60;;;33.50;30.60;;;;;;5084005;28;20412;-66
2022/06/22 14:01:47;;;;;;;0.63;0.63;;;33.40;30.00;;;;;;5082229;28;20655;-65
2022/06/22 14:04:18;;;;;;;0.70;0.70;;;33.30;30.70;;;;;;5041837;28;20177;-66
2022/06/22 14:06:53;;;;;;;1.35;0.63;;;33.30;30.80;;;;;;5091974;28;20032;-65
2022/06/22 14:09:31;;;;;;;0.98;0.93;;;33.40;30.80;;;;;;5083947;28;20269;-65
2022/06/22 14:12:25;;;;;;;0.82;0.65;;;33.50;30.20;;;;;;5082288;28;20035;-67
2022/06/22 14:15:13;;;;;;;0.75;0.75;;;33.60;30.40;;;;;;5083914;28;20612;-66